createdAt,value
2019-05-22T00:01:17.223Z,1.92
2019-05-22T00:03:34.209Z,1.80
2019-05-22T00:05:43.039Z,1.80
2019-05-22T00:07:51.228Z,1.72
2019-05-22T00:09:59.346Z,2.10
2019-05-22T00:12:09.546Z,1.82
2019-05-22T00:14:16.188Z,1.98
2019-05-22T00:16:24.585Z,1.72
2019-05-22T00:18:34.074Z,1.80
2019-05-22T00:20:43.862Z,1.65
2019-05-22T00:22:52.371Z,1.57
2019-05-22T00:25:00.655Z,1.75
2019-05-22T00:27:09.865Z,2.20
2019-05-22T00:29:16.373Z,1.65
2019-05-22T00:31:25.786Z,1.85
2019-05-22T00:33:36.204Z,1.70
2019-05-22T00:35:42.283Z,1.80
2019-05-22T00:37:50.761Z,2.02
2019-05-22T00:42:07.275Z,1.70
2019-05-22T00:44:14.245Z,2.27
2019-05-22T00:46:21.736Z,2.08
2019-05-22T00:48:30.993Z,2.30
2019-05-22T00:50:54.780Z,2.05
2019-05-22T00:53:05.377Z,1.90
2019-05-22T00:55:28.617Z,2.17
2019-05-22T00:57:40.060Z,1.82
2019-05-22T00:59:48.612Z,2.27
2019-05-22T01:02:15.276Z,1.72
2019-05-22T01:04:38.947Z,2.27
2019-05-22T01:06:48.447Z,2.20
2019-05-22T01:08:56.628Z,2.30
2019-05-22T01:11:05.117Z,2.27
2019-05-22T01:13:14.065Z,2.50
2019-05-22T01:15:22.433Z,2.17
2019-05-22T01:17:33.625Z,2.47
2019-05-22T01:19:40.990Z,2.20
2019-05-22T01:21:49.006Z,2.42
2019-05-22T01:23:58.093Z,2.42
2019-05-22T01:28:13.887Z,2.08
2019-05-22T01:30:23.735Z,2.60
2019-05-22T01:32:35.441Z,2.40
2019-05-22T01:34:43.846Z,2.20
2019-05-22T01:36:51.729Z,1.98
2019-05-22T01:39:04.427Z,2.15
2019-05-22T01:41:35.994Z,2.20
2019-05-22T01:43:44.095Z,2.00
2019-05-22T01:45:53.808Z,2.13
2019-05-22T01:48:05.925Z,1.65
2019-05-22T01:50:21.037Z,2.22
2019-05-22T01:52:28.581Z,2.02
2019-05-22T01:54:35.809Z,2.00
2019-05-22T01:56:43.584Z,2.00
2019-05-22T01:58:51.000Z,2.02
2019-05-22T02:01:00.221Z,2.10
2019-05-22T02:03:10.722Z,1.90
2019-05-22T02:05:18.996Z,2.58
2019-05-22T02:07:29.318Z,1.85
2019-05-22T02:09:41.803Z,1.87
2019-05-22T02:11:54.473Z,1.90
2019-05-22T02:14:12.502Z,1.90
2019-05-22T02:18:29.012Z,2.02
2019-05-22T02:20:38.340Z,1.65
2019-05-22T02:22:46.568Z,1.70
2019-05-22T02:24:54.926Z,1.90
2019-05-22T02:27:03.347Z,1.70
2019-05-22T02:29:12.165Z,1.92
2019-05-22T02:31:23.508Z,1.75
2019-05-22T02:33:32.421Z,1.80
2019-05-22T02:35:41.134Z,2.08
2019-05-22T02:37:48.488Z,1.60
2019-05-22T02:39:55.917Z,1.77
2019-05-22T02:42:16.375Z,1.52
2019-05-22T02:44:25.629Z,1.80
2019-05-22T02:46:32.277Z,1.62
2019-05-22T02:48:42.483Z,1.67
2019-05-22T02:50:50.061Z,1.50
2019-05-22T02:52:57.343Z,1.60
2019-05-22T02:55:05.824Z,1.90
2019-05-22T02:57:13.860Z,2.00
2019-05-22T02:59:21.227Z,1.80
2019-05-22T03:01:28.129Z,2.02
2019-05-22T03:03:36.778Z,1.80
2019-05-22T03:05:43.571Z,1.95
2019-05-22T03:07:50.578Z,1.62
2019-05-22T03:09:57.887Z,1.82
2019-05-22T03:12:07.357Z,2.00
2019-05-22T03:14:15.662Z,1.98
2019-05-22T03:16:23.024Z,2.10
2019-05-22T03:18:30.595Z,1.80
2019-05-22T03:20:40.439Z,2.10
2019-05-22T03:23:06.996Z,1.87
2019-05-22T03:25:18.215Z,1.98
2019-05-22T03:27:39.063Z,2.20
2019-05-22T03:29:55.396Z,1.85
2019-05-22T03:32:02.409Z,2.00
2019-05-22T03:34:10.491Z,2.00
2019-05-22T03:38:26.701Z,1.80
2019-05-22T03:40:35.100Z,1.95
2019-05-22T03:42:43.004Z,2.00
2019-05-22T03:44:53.478Z,2.02
2019-05-22T03:47:00.488Z,2.05
2019-05-22T03:49:27.480Z,2.08
2019-05-22T03:51:18.781Z,2.10
2019-05-22T03:53:26.053Z,2.00
2019-05-22T03:55:32.904Z,2.20
2019-05-22T03:57:40.010Z,2.00
2019-05-22T03:59:46.926Z,2.37
2019-05-22T04:01:54.914Z,2.00
2019-05-22T04:04:04.861Z,2.17
2019-05-22T04:06:12.549Z,1.90
2019-05-22T04:08:22.143Z,1.67
2019-05-22T04:10:41.069Z,2.02
2019-05-22T04:12:45.494Z,2.30
2019-05-22T04:14:52.838Z,1.90
2019-05-22T04:17:00.947Z,1.85
2019-05-22T04:19:08.178Z,1.90
2019-05-22T04:21:14.654Z,1.85
2019-05-22T04:23:22.606Z,1.87
2019-05-22T04:25:30.048Z,2.08
2019-05-22T04:27:37.616Z,2.15
2019-05-22T04:29:44.295Z,2.75
2019-05-22T04:31:54.338Z,1.87
2019-05-22T04:34:00.970Z,2.20
2019-05-22T04:36:10.261Z,2.50
2019-05-22T04:38:19.069Z,2.08
2019-05-22T04:40:35.799Z,1.92
2019-05-22T04:42:43.697Z,1.75
2019-05-22T04:45:13.759Z,2.25
2019-05-22T04:47:20.624Z,2.27
2019-05-22T04:49:27.189Z,2.10
2019-05-22T04:51:33.979Z,2.75
2019-05-22T04:53:40.753Z,1.82
2019-05-22T04:55:47.175Z,2.00
2019-05-22T04:57:54.194Z,1.75
2019-05-22T05:00:00.946Z,1.55
2019-05-22T05:02:08.176Z,2.00
2019-05-22T05:04:16.350Z,1.90
2019-05-22T05:06:26.353Z,1.75
2019-05-22T05:08:33.695Z,2.12
2019-05-22T05:10:44.673Z,1.90
2019-05-22T05:12:52.048Z,2.25
2019-05-22T05:15:00.418Z,1.55
2019-05-22T05:17:08.674Z,1.60
2019-05-22T05:19:15.449Z,1.98
2019-05-22T05:21:22.013Z,1.77
2019-05-22T05:23:30.283Z,1.80
2019-05-22T05:25:38.123Z,1.60
2019-05-22T05:27:46.998Z,1.87
2019-05-22T05:32:00.147Z,1.57
2019-05-22T05:34:25.372Z,1.80
2019-05-22T05:36:33.197Z,2.12
2019-05-22T05:38:40.592Z,2.20
2019-05-22T05:40:47.218Z,2.10
2019-05-22T05:42:54.567Z,2.33
2019-05-22T05:45:01.607Z,2.37
2019-05-22T05:47:10.337Z,2.00
2019-05-22T05:49:18.766Z,2.22
2019-05-22T05:51:27.594Z,2.22
2019-05-22T05:53:40.185Z,2.52
2019-05-22T05:56:16.828Z,2.25
2019-05-22T05:58:28.849Z,2.15
2019-05-22T06:00:44.545Z,2.15
2019-05-22T06:02:56.446Z,2.87
2019-05-22T06:04:58.315Z,2.50
2019-05-22T06:07:22.853Z,2.35
2019-05-22T06:09:30.030Z,2.80
2019-05-22T06:11:52.835Z,2.47
2019-05-22T06:14:06.854Z,3.08
2019-05-22T06:16:24.945Z,2.52
2019-05-22T06:18:36.582Z,2.33
2019-05-22T06:20:43.008Z,2.92
2019-05-22T06:23:16.640Z,2.70
2019-05-22T06:25:23.399Z,2.15
2019-05-22T06:27:41.683Z,2.67
2019-05-22T06:30:05.183Z,2.50
2019-05-22T06:32:33.050Z,1.90
2019-05-22T06:34:39.792Z,3.02
2019-05-22T06:36:46.643Z,2.30
2019-05-22T06:39:01.000Z,2.95
2019-05-22T06:41:09.966Z,2.30
2019-05-22T06:43:30.366Z,2.35
2019-05-22T06:45:36.982Z,2.40
2019-05-22T06:47:43.596Z,2.70
2019-05-22T06:49:52.261Z,2.92
2019-05-22T06:51:59.205Z,2.40
2019-05-22T06:54:05.782Z,2.42
2019-05-22T06:56:12.329Z,1.57
2019-05-22T06:58:19.821Z,3.05
2019-05-22T07:00:28.641Z,3.67
2019-05-22T07:02:35.745Z,2.77
2019-05-22T07:04:42.905Z,2.87
2019-05-22T07:06:49.819Z,2.10
2019-05-22T07:08:58.363Z,2.40
2019-05-22T07:11:04.996Z,2.40
2019-05-22T07:13:13.929Z,2.05
2019-05-22T07:17:32.463Z,2.30
2019-05-22T07:19:39.389Z,1.98
2019-05-22T07:21:48.372Z,1.90
2019-05-22T07:23:55.865Z,2.22
2019-05-22T07:26:03.651Z,2.55
2019-05-22T07:28:11.516Z,1.98
2019-05-22T07:30:18.597Z,1.70
2019-05-22T07:32:30.719Z,2.27
2019-05-22T07:34:35.094Z,2.42
2019-05-22T07:36:44.821Z,3.60
2019-05-22T07:38:51.651Z,2.02
2019-05-22T07:40:58.546Z,2.10
2019-05-22T07:43:05.958Z,2.00
2019-05-22T07:45:14.296Z,1.85
2019-05-22T07:47:25.043Z,1.70
2019-05-22T07:49:32.884Z,1.70
2019-05-22T07:51:51.829Z,2.42
2019-05-22T07:53:48.569Z,1.52
2019-05-22T07:55:57.742Z,1.50
2019-05-22T07:58:17.146Z,2.02
2019-05-22T08:00:26.255Z,1.77
2019-05-22T08:02:45.081Z,2.10
2019-05-22T08:04:52.954Z,1.60
2019-05-22T08:07:00.485Z,2.00
2019-05-22T08:09:11.128Z,2.00
2019-05-22T08:11:19.953Z,2.08
2019-05-22T08:13:27.661Z,2.17
2019-05-22T08:15:34.602Z,1.77
2019-05-22T08:17:42.775Z,1.60
2019-05-22T08:19:49.541Z,2.00
2019-05-22T08:22:06.920Z,1.90
2019-05-22T08:24:06.135Z,2.02
2019-05-22T08:26:13.824Z,2.55
2019-05-22T08:28:22.757Z,2.05
2019-05-22T08:32:39.012Z,1.95
2019-05-22T08:34:47.175Z,2.40
2019-05-22T08:36:54.945Z,2.60
2019-05-22T08:39:03.899Z,2.98
2019-05-22T08:43:18.484Z,2.35
2019-05-22T08:45:28.053Z,2.10
2019-05-22T08:47:34.917Z,2.20
2019-05-22T08:49:41.927Z,2.20
2019-05-22T08:51:48.974Z,1.85
2019-05-22T08:53:57.393Z,1.60
2019-05-22T08:56:06.294Z,1.70
2019-05-22T08:58:15.023Z,1.47
2019-05-22T09:00:23.693Z,1.45
2019-05-22T09:02:30.819Z,1.50
2019-05-22T09:04:37.449Z,1.70
2019-05-22T09:06:44.199Z,1.62
2019-05-22T09:08:50.858Z,1.65
2019-05-22T09:10:57.341Z,1.95
2019-05-22T09:13:03.998Z,1.82
2019-05-22T09:15:12.422Z,1.40
2019-05-22T09:17:20.372Z,1.50
2019-05-22T09:19:27.640Z,2.12
2019-05-22T09:21:34.706Z,2.58
2019-05-22T09:23:42.309Z,1.50
2019-05-22T09:25:49.298Z,1.47
2019-05-22T09:27:56.318Z,1.80
2019-05-22T09:30:03.282Z,1.90
2019-05-22T09:32:10.244Z,1.90
2019-05-22T09:34:17.078Z,1.85
2019-05-22T09:36:23.836Z,8.33
2019-05-22T09:38:31.657Z,2.92
2019-05-22T09:40:38.400Z,1.67
2019-05-22T09:42:45.044Z,1.60
2019-05-22T09:44:51.548Z,2.27
2019-05-22T09:46:58.373Z,1.65
2019-05-22T09:49:06.190Z,2.22
2019-05-22T09:51:13.087Z,2.00
2019-05-22T09:53:21.672Z,2.05
2019-05-22T09:55:28.949Z,1.65
2019-05-22T09:57:36.079Z,1.47
2019-05-22T09:59:42.878Z,1.87
2019-05-22T10:01:49.759Z,1.85
2019-05-22T10:03:58.220Z,1.90
2019-05-22T10:06:05.559Z,1.77
2019-05-22T10:08:12.809Z,1.92
2019-05-22T10:10:19.897Z,2.42
2019-05-22T10:12:27.080Z,3.22
2019-05-22T10:14:35.462Z,2.15
2019-05-22T10:16:42.072Z,2.22
2019-05-22T10:18:52.833Z,1.90
2019-05-22T10:20:58.025Z,2.90
2019-05-22T10:23:15.490Z,2.25
2019-05-22T10:25:17.112Z,1.90
2019-05-22T10:27:24.361Z,2.22
2019-05-22T10:29:32.442Z,1.90
2019-05-22T10:31:39.038Z,1.90
2019-05-22T10:33:45.668Z,3.12
2019-05-22T10:35:53.931Z,2.37
2019-05-22T10:38:01.690Z,1.80
2019-05-22T10:40:10.296Z,2.27
2019-05-22T10:42:17.448Z,1.80
2019-05-22T10:44:24.083Z,2.12
2019-05-22T10:46:30.771Z,2.12
2019-05-22T10:48:40.227Z,1.70
2019-05-22T10:50:45.704Z,1.80
2019-05-22T10:52:55.006Z,1.70
2019-05-22T10:55:02.098Z,3.72
2019-05-22T10:57:09.434Z,1.75
2019-05-22T10:59:15.939Z,2.40
2019-05-22T11:01:23.507Z,1.47
2019-05-22T11:03:30.948Z,1.60
2019-05-22T11:05:39.007Z,1.67
2019-05-22T11:07:47.044Z,1.47
2019-05-22T11:09:53.718Z,1.90
2019-05-22T11:12:01.161Z,4.85
2019-05-22T11:14:09.595Z,3.70
2019-05-22T11:16:16.943Z,1.95
2019-05-22T11:18:23.552Z,1.32
2019-05-22T11:20:31.019Z,1.40
2019-05-22T11:22:38.218Z,1.57
2019-05-22T11:24:44.768Z,1.57
2019-05-22T11:26:51.877Z,1.70
2019-05-22T11:29:00.035Z,1.98
2019-05-22T11:31:07.379Z,1.92
2019-05-22T11:33:13.992Z,1.70
2019-05-22T11:35:21.638Z,1.40
2019-05-22T11:37:28.270Z,1.47
2019-05-22T11:39:39.429Z,2.50
2019-05-22T11:41:44.761Z,2.75
2019-05-22T11:43:52.017Z,1.62
2019-05-22T11:45:58.797Z,1.62
2019-05-22T11:48:05.528Z,1.45
2019-05-22T11:50:16.274Z,1.70
2019-05-22T11:52:22.894Z,1.12
2019-05-22T11:54:30.044Z,1.10
2019-05-22T11:56:36.907Z,2.22
2019-05-22T11:58:43.984Z,1.50
2019-05-22T12:00:51.267Z,1.75
2019-05-22T12:02:59.662Z,2.25
2019-05-22T12:05:10.754Z,2.60
2019-05-22T12:07:17.764Z,1.70
2019-05-22T12:09:27.290Z,2.35
2019-05-22T12:11:33.777Z,1.30
2019-05-22T12:13:40.316Z,1.62
2019-05-22T12:15:47.126Z,1.50
2019-05-22T12:17:55.168Z,1.37
2019-05-22T12:20:02.318Z,1.30
2019-05-22T12:22:09.661Z,1.45
2019-05-22T12:24:27.068Z,1.82
2019-05-22T12:26:26.336Z,2.30
2019-05-22T12:28:33.073Z,2.85
2019-05-22T12:30:40.394Z,6.28
2019-05-22T12:32:48.569Z,1.85
2019-05-22T12:34:55.856Z,2.45
2019-05-22T12:37:03.132Z,2.50
2019-05-22T12:39:11.802Z,1.60
2019-05-22T12:41:21.089Z,1.90
2019-05-22T12:43:31.833Z,1.40
2019-05-22T12:45:38.390Z,1.60
2019-05-22T12:47:45.531Z,1.52
2019-05-22T12:49:53.279Z,1.50
2019-05-22T12:52:01.745Z,1.40
2019-05-22T12:54:08.827Z,1.75
2019-05-22T12:56:17.218Z,1.57
2019-05-22T12:58:23.832Z,2.20
2019-05-22T13:00:32.930Z,1.30
2019-05-22T13:02:42.626Z,1.40
2019-05-22T13:04:49.508Z,3.10
2019-05-22T13:06:56.305Z,1.57
2019-05-22T13:09:03.816Z,2.25
2019-05-22T13:11:11.455Z,2.05
2019-05-22T13:13:18.018Z,2.00
2019-05-22T13:15:26.110Z,1.60
2019-05-22T13:17:35.311Z,2.52
2019-05-22T13:19:43.849Z,1.50
2019-05-22T13:21:53.948Z,1.32
2019-05-22T13:24:04.784Z,1.60
2019-05-22T13:26:12.035Z,2.55
2019-05-22T13:28:20.107Z,1.80
2019-05-22T13:30:28.568Z,2.00
2019-05-22T13:32:37.777Z,2.10
2019-05-22T13:34:45.105Z,1.12
2019-05-22T13:36:52.850Z,3.00
2019-05-22T13:39:00.344Z,1.22
2019-05-22T13:41:07.373Z,1.70
2019-05-22T13:43:14.339Z,1.50
2019-05-22T13:45:29.397Z,1.20
2019-05-22T13:47:30.965Z,1.37
2019-05-22T13:49:39.523Z,1.00
2019-05-22T13:51:45.974Z,1.00
2019-05-22T13:53:53.946Z,0.98
2019-05-22T13:56:00.744Z,1.10
2019-05-22T13:58:09.005Z,1.30
2019-05-22T14:00:20.162Z,1.57
2019-05-22T14:02:27.820Z,1.20
2019-05-22T14:04:35.513Z,1.00
2019-05-22T14:06:42.411Z,1.10
2019-05-22T14:08:50.023Z,1.20
2019-05-22T14:10:56.982Z,1.67
2019-05-22T14:13:04.602Z,1.30
2019-05-22T14:15:14.739Z,1.27
2019-05-22T14:19:27.154Z,1.37
2019-05-22T14:21:34.373Z,1.57
2019-05-22T14:23:41.104Z,1.35
2019-05-22T14:25:49.661Z,1.40
2019-05-22T14:27:56.712Z,1.50
2019-05-22T14:30:04.289Z,1.70
2019-05-22T14:32:11.894Z,1.50
2019-05-22T14:34:19.343Z,1.40
2019-05-22T14:36:25.857Z,1.30
2019-05-22T14:38:33.183Z,1.47
2019-05-22T14:40:40.443Z,1.40
2019-05-22T14:42:47.317Z,1.30
2019-05-22T14:44:54.089Z,1.60
2019-05-22T14:47:13.376Z,1.60
2019-05-22T14:49:09.338Z,1.65
2019-05-22T14:51:17.817Z,1.22
2019-05-22T14:53:25.079Z,1.27
2019-05-22T14:55:34.892Z,1.32
2019-05-22T14:57:42.065Z,1.20
2019-05-22T14:59:49.025Z,1.20
2019-05-22T15:01:55.704Z,1.60
2019-05-22T15:04:02.963Z,1.20
2019-05-22T15:06:09.643Z,1.57
2019-05-22T15:08:16.244Z,1.65
2019-05-22T15:10:25.270Z,1.80
2019-05-22T15:12:32.126Z,1.10
2019-05-22T15:14:38.693Z,1.45
2019-05-22T15:16:45.285Z,1.40
2019-05-22T15:18:51.850Z,1.72
2019-05-22T15:21:02.786Z,1.17
2019-05-22T15:23:10.203Z,1.10
2019-05-22T15:25:16.928Z,1.30
2019-05-22T15:27:24.517Z,1.32
2019-05-22T15:29:31.507Z,1.20
2019-05-22T15:31:38.533Z,1.10
2019-05-22T15:33:45.227Z,1.05
2019-05-22T15:35:52.673Z,1.10
2019-05-22T15:38:01.224Z,1.30
2019-05-22T15:40:10.895Z,1.10
2019-05-22T15:42:42.911Z,1.30
2019-05-22T15:44:50.655Z,1.37
2019-05-22T15:46:57.262Z,1.47
2019-05-22T15:49:09.396Z,1.92
2019-05-22T15:51:18.305Z,1.85
2019-05-22T15:55:34.134Z,1.77
2019-05-22T15:57:44.247Z,1.40
2019-05-22T15:59:50.968Z,1.70
2019-05-22T16:01:59.747Z,1.80
2019-05-22T16:04:10.246Z,1.65
2019-05-22T16:06:22.099Z,1.57
2019-05-22T16:08:31.024Z,1.50
2019-05-22T16:10:43.439Z,1.80
2019-05-22T16:12:50.749Z,1.45
2019-05-22T16:15:01.527Z,1.90
2019-05-22T16:17:10.041Z,1.65
2019-05-22T16:19:21.375Z,1.30
2019-05-22T16:21:29.520Z,1.77
2019-05-22T16:23:41.197Z,1.77
2019-05-22T16:25:50.725Z,1.90
2019-05-22T16:27:59.033Z,2.33
2019-05-22T16:30:07.383Z,2.08
2019-05-22T16:34:28.316Z,3.33
2019-05-22T16:36:34.140Z,2.40
2019-05-22T16:38:41.718Z,2.55
2019-05-22T16:40:50.299Z,2.27
2019-05-22T16:42:58.909Z,2.00
2019-05-22T16:45:10.760Z,2.27
2019-05-22T16:47:20.083Z,2.35
2019-05-22T16:49:28.117Z,2.87
2019-05-22T16:51:36.505Z,2.67
2019-05-22T16:54:05.436Z,2.10
2019-05-22T16:56:14.892Z,2.55
2019-05-22T16:58:21.891Z,2.25
2019-05-22T17:00:29.659Z,2.30
2019-05-22T17:02:41.807Z,2.25
2019-05-22T17:04:50.263Z,1.70
2019-05-22T17:07:00.324Z,6.37
2019-05-22T17:09:11.554Z,1.95
2019-05-22T17:11:19.619Z,2.12
2019-05-22T17:13:29.707Z,3.27
2019-05-22T17:15:37.387Z,1.60
2019-05-22T17:17:44.665Z,1.60
2019-05-22T17:19:52.331Z,1.60
2019-05-22T17:22:00.112Z,1.50
2019-05-22T17:24:10.923Z,1.52
2019-05-22T17:26:19.487Z,1.70
2019-05-22T17:28:27.347Z,1.90
2019-05-22T17:30:37.252Z,2.25
2019-05-22T17:32:45.456Z,2.75
2019-05-22T17:34:52.054Z,2.35
2019-05-22T17:36:59.637Z,3.17
2019-05-22T17:39:09.729Z,3.25
2019-05-22T17:41:16.862Z,3.98
2019-05-22T17:43:25.869Z,4.45
2019-05-22T17:47:39.977Z,4.15
2019-05-22T17:49:47.054Z,3.65
2019-05-22T17:51:54.839Z,2.80
2019-05-22T17:54:02.809Z,3.42
2019-05-22T17:56:09.430Z,2.80
2019-05-22T17:58:16.107Z,3.12
2019-05-22T18:00:29.164Z,2.72
2019-05-22T18:02:36.498Z,3.50
2019-05-22T18:04:42.863Z,3.10
2019-05-22T18:06:50.815Z,3.27
2019-05-22T18:08:57.296Z,3.22
2019-05-22T18:11:07.804Z,3.02
2019-05-22T18:13:15.238Z,3.87
2019-05-22T18:15:22.385Z,2.87
2019-05-22T18:17:28.968Z,2.98
2019-05-22T18:19:35.983Z,2.85
2019-05-22T18:21:42.714Z,2.87
2019-05-22T18:23:50.058Z,2.47
2019-05-22T18:25:56.527Z,3.12
2019-05-22T18:28:05.078Z,3.10
2019-05-22T18:30:13.796Z,2.83
2019-05-22T18:32:20.223Z,2.83
2019-05-22T18:34:26.709Z,3.17
2019-05-22T18:36:33.424Z,4.58
2019-05-22T18:38:41.065Z,4.83
2019-05-22T18:40:49.243Z,4.45
2019-05-22T18:42:55.948Z,4.08
2019-05-22T18:45:03.242Z,3.22
2019-05-22T18:47:10.730Z,3.58
2019-05-22T18:49:17.619Z,4.37
2019-05-22T18:51:24.794Z,3.10
2019-05-22T18:53:31.386Z,3.05
2019-05-22T18:55:38.024Z,2.55
2019-05-22T18:57:45.217Z,2.75
2019-05-22T19:00:00.166Z,2.40
2019-05-22T19:02:01.420Z,2.50
2019-05-22T19:04:08.010Z,3.22
2019-05-22T19:06:14.898Z,2.65
2019-05-22T19:08:21.496Z,3.08
2019-05-22T19:10:28.831Z,3.12
2019-05-22T19:12:35.395Z,3.02
2019-05-22T19:14:41.965Z,3.25
2019-05-22T19:16:49.434Z,3.60
2019-05-22T19:18:55.996Z,3.62
2019-05-22T19:21:02.893Z,3.42
2019-05-22T19:23:09.970Z,3.72
2019-05-22T19:25:16.999Z,3.35
2019-05-22T19:27:23.550Z,3.45
2019-05-22T19:29:30.928Z,3.47
2019-05-22T19:31:37.450Z,3.40
2019-05-22T19:33:44.105Z,3.95
2019-05-22T19:35:51.516Z,4.20
2019-05-22T19:37:58.439Z,3.80
2019-05-22T19:40:08.488Z,4.28
2019-05-22T19:42:15.171Z,3.65
2019-05-22T19:44:23.461Z,3.83
2019-05-22T19:46:30.458Z,3.70
2019-05-22T19:48:37.391Z,3.47
2019-05-22T19:50:45.924Z,3.85
2019-05-22T19:52:55.404Z,3.80
2019-05-22T19:55:06.958Z,3.52
2019-05-22T19:57:13.056Z,3.67
2019-05-22T19:59:20.206Z,4.40
2019-05-22T20:01:27.226Z,4.80
2019-05-22T20:03:34.466Z,7.05
2019-05-22T20:05:41.195Z,9.63
2019-05-22T20:07:47.590Z,9.40
2019-05-22T20:09:54.569Z,6.87
2019-05-22T20:12:02.127Z,6.72
2019-05-22T20:14:09.736Z,5.47
2019-05-22T20:16:16.220Z,4.30
2019-05-22T20:18:26.366Z,6.53
2019-05-22T20:20:33.049Z,5.40
2019-05-22T20:22:42.216Z,6.75
2019-05-22T20:24:50.814Z,5.55
2019-05-22T20:27:00.943Z,6.75
2019-05-22T20:29:09.225Z,5.62
2019-05-22T20:31:17.035Z,8.78
2019-05-22T20:33:26.950Z,11.43
2019-05-22T20:35:33.698Z,8.80
2019-05-22T20:37:41.969Z,7.05
2019-05-22T20:39:50.012Z,6.95
2019-05-22T20:41:57.142Z,6.33
2019-05-22T20:44:08.300Z,5.85
2019-05-22T20:46:17.481Z,5.72
2019-05-22T20:48:29.275Z,5.67
2019-05-22T20:50:37.460Z,4.92
2019-05-22T20:52:45.758Z,5.85
2019-05-22T20:54:54.920Z,5.15
2019-05-22T20:57:04.377Z,5.25
2019-05-22T20:59:13.040Z,5.05
2019-05-22T21:01:19.615Z,5.65
2019-05-22T21:03:26.502Z,5.45
2019-05-22T21:05:33.489Z,5.25
2019-05-22T21:07:51.201Z,6.08
2019-05-22T21:09:57.777Z,5.58
2019-05-22T21:12:07.076Z,5.80
2019-05-22T21:14:13.823Z,7.22
2019-05-22T21:16:20.856Z,7.40
2019-05-22T21:18:31.228Z,6.85
2019-05-22T21:20:53.543Z,6.20
2019-05-22T21:22:48.259Z,5.40
2019-05-22T21:24:54.872Z,5.72
2019-05-22T21:27:01.703Z,5.15
2019-05-22T21:29:09.094Z,5.30
2019-05-22T21:31:17.172Z,4.72
2019-05-22T21:33:25.603Z,4.80
2019-05-22T21:35:32.160Z,5.05
2019-05-22T21:37:40.533Z,5.12
2019-05-22T21:39:48.054Z,4.47
2019-05-22T21:41:54.619Z,4.33
2019-05-22T21:44:01.110Z,4.30
2019-05-22T21:46:07.760Z,3.90
2019-05-22T21:48:15.143Z,3.75
2019-05-22T21:50:22.814Z,3.80
2019-05-22T21:52:29.912Z,3.83
2019-05-22T21:54:37.830Z,3.83
2019-05-22T21:56:45.205Z,4.00
2019-05-22T21:58:52.160Z,3.98
2019-05-22T22:01:02.767Z,4.08
2019-05-22T22:03:12.852Z,3.77
2019-05-22T22:05:20.272Z,4.33
2019-05-22T22:07:27.645Z,4.95
2019-05-22T22:09:35.174Z,4.95
2019-05-22T22:11:42.151Z,4.28
2019-05-22T22:13:50.089Z,4.92
2019-05-22T22:15:56.807Z,4.42
2019-05-22T22:18:03.827Z,4.47
2019-05-22T22:20:11.813Z,4.08
2019-05-22T22:22:25.489Z,4.58
2019-05-22T22:24:32.454Z,4.72
2019-05-22T22:26:39.571Z,4.50
2019-05-22T22:28:46.816Z,4.15
2019-05-22T22:31:02.801Z,4.80
2019-05-22T22:33:14.856Z,4.28
2019-05-22T22:35:22.775Z,4.20
2019-05-22T22:37:31.297Z,4.62
2019-05-22T22:39:39.856Z,4.25
2019-05-22T22:41:47.566Z,4.10
2019-05-22T22:43:56.346Z,4.30
2019-05-22T22:46:06.570Z,4.50
2019-05-22T22:48:17.673Z,4.30
2019-05-22T22:50:25.534Z,5.10
2019-05-22T22:52:32.824Z,4.75
2019-05-22T22:54:40.514Z,4.42
2019-05-22T22:56:48.360Z,4.83
2019-05-22T22:58:54.990Z,4.87
2019-05-22T23:01:04.065Z,4.72
2019-05-22T23:03:14.437Z,4.60
2019-05-22T23:05:23.302Z,4.95
2019-05-22T23:07:32.617Z,4.85
2019-05-22T23:09:42.722Z,4.87
2019-05-22T23:11:51.778Z,4.05
2019-05-22T23:16:04.545Z,4.62
2019-05-22T23:18:12.900Z,4.10
2019-05-22T23:20:19.588Z,4.30
2019-05-22T23:22:25.532Z,4.17
2019-05-22T23:24:34.166Z,4.20
2019-05-22T23:26:41.831Z,4.20
2019-05-22T23:28:48.473Z,4.30
2019-05-22T23:30:56.923Z,3.80
2019-05-22T23:33:04.973Z,4.12
2019-05-22T23:35:13.264Z,3.95
2019-05-22T23:37:22.400Z,3.25
2019-05-22T23:39:32.712Z,4.53
2019-05-22T23:41:39.717Z,4.15
2019-05-22T23:43:47.215Z,3.98
2019-05-22T23:45:54.826Z,3.92
2019-05-22T23:48:07.730Z,3.98
2019-05-22T23:50:15.544Z,4.25
2019-05-22T23:52:22.324Z,4.00
2019-05-22T23:54:30.180Z,4.33
2019-05-22T23:56:37.067Z,4.45
2019-05-22T23:58:52.675Z,3.80
